Time;durP1;ratioP1;P1;durP2;ratioP2;P2;SDS_P1;SDS_P2;PMS_P1;PMS_P2;Temp;Humidity;BMP_temperature;BMP_pressure;BME280_temperature;BME280_humidity;BME280_pressure;Samples;Min_cycle;Max_cycle;Signal;HPM_P1;HPM_P2
2023/10/17 00:00:28;;;;;;;2.72;1.80;;;;;;;8.09;93.57;102339.97;7389539;19;20288;-67
2023/10/17 00:02:59;;;;;;;4.68;2.03;;;;;;;8.03;93.64;102333.25;7391219;19;20013;-67
2023/10/17 00:05:27;;;;;;;2.90;2.15;;;;;;;8.01;93.37;102329.84;7388688;19;19926;-67
2023/10/17 00:07:58;;;;;;;2.90;1.83;;;;;;;7.99;93.29;102325.56;7389034;19;19922;-68
2023/10/17 00:10:31;;;;;;;3.72;2.25;;;;;;;7.95;93.59;102321.44;7388403;19;19926;-67
2023/10/17 00:13:18;;;;;;;4.22;2.08;;;;;;;7.91;93.41;102325.34;7388186;19;20290;-69
2023/10/17 00:15:47;;;;;;;5.45;2.67;;;;;;;7.82;93.20;102321.56;7385007;19;19918;-68
2023/10/17 00:18:19;;;;;;;3.72;2.60;;;;;;;7.74;93.10;102324.03;7389229;19;19924;-68
2023/10/17 00:20:50;;;;;;;7.35;5.03;;;;;;;7.67;93.25;102320.13;7389171;19;19946;-68
2023/10/17 00:23:20;;;;;;;;;;;;;;;7.46;94.04;102320.03;7392502;19;19918;-68
2023/10/17 00:25:49;;;;;;;7.60;5.10;;;;;;;7.56;93.65;102326.34;7390668;19;19978;-68
2023/10/17 00:28:22;;;;;;;5.32;3.38;;;;;;;7.53;93.36;102323.91;7388720;19;19918;-68
2023/10/17 00:30:51;;;;;;;3.60;2.63;;;;;;;7.53;93.54;102320.38;7395077;19;19926;-68
2023/10/17 00:33:23;;;;;;;4.15;2.17;;;;;;;7.51;93.36;102314.25;7394329;19;19926;-68
2023/10/17 00:35:54;;;;;;;2.92;1.90;;;;;;;7.52;93.21;102313.31;7392257;19;19963;-68
2023/10/17 00:38:23;;;;;;;2.80;1.90;;;;;;;7.50;93.42;102316.13;7395251;19;19939;-67
2023/10/17 00:40:51;;;;;;;5.40;1.92;;;;;;;7.49;93.24;102309.03;7394823;19;19934;-68
2023/10/17 00:43:24;;;;;;;4.88;2.20;;;;;;;7.46;93.09;102321.84;7394223;19;19918;-68
2023/10/17 00:45:52;;;;;;;2.75;1.67;;;;;;;7.44;93.02;102311.22;7393455;19;20273;-68
2023/10/17 00:48:23;;;;;;;4.07;2.10;;;;;;;7.43;92.99;102312.19;7396516;19;19930;-68
2023/10/17 00:50:57;;;;;;;4.75;2.40;;;;;;;7.41;93.02;102308.81;7391757;19;19982;-68
2023/10/17 00:53:27;;;;;;;5.43;2.22;;;;;;;7.40;93.14;102316.97;7397129;19;19959;-68
2023/10/17 00:55:56;;;;;;;4.90;2.40;;;;;;;7.36;93.03;102324.41;7394989;19;19935;-68
2023/10/17 00:58:27;;;;;;;4.75;2.25;;;;;;;7.34;93.12;102320.97;7396633;19;19940;-68
2023/10/17 01:01:09;;;;;;;5.53;3.15;;;;;;;7.33;93.20;102323.78;7393863;19;19974;-68
2023/10/17 01:03:41;;;;;;;6.90;2.47;;;;;;;7.29;93.52;102325.88;7390757;19;19960;-68
2023/10/17 01:06:14;;;;;;;3.22;1.90;;;;;;;7.29;93.46;102315.13;7395945;19;19933;-68
2023/10/17 01:08:44;;;;;;;3.80;2.08;;;;;;;7.30;93.76;102323.03;7397003;19;20299;-68
2023/10/17 01:11:20;;;;;;;7.35;2.47;;;;;;;7.33;93.47;102323.78;7394118;19;20349;-68
2023/10/17 01:13:52;;;;;;;7.90;2.60;;;;;;;7.33;93.53;102326.47;7392158;19;19951;-68
2023/10/17 01:16:22;;;;;;;7.55;2.53;;;;;;;7.33;93.66;102321.09;7392338;19;19923;-68
2023/10/17 01:18:50;;;;;;;4.50;2.55;;;;;;;7.34;93.69;102325.47;7393409;19;19978;-68
2023/10/17 01:21:21;;;;;;;4.05;1.98;;;;;;;7.37;93.85;102317.22;7394334;19;19926;-69
2023/10/17 01:23:50;;;;;;;3.28;2.35;;;;;;;7.38;93.76;102316.25;7391849;19;19919;-68
2023/10/17 01:26:23;;;;;;;4.43;2.03;;;;;;;7.42;93.84;102317.72;7395812;19;20372;-68
2023/10/17 01:28:54;;;;;;;3.55;2.38;;;;;;;7.45;93.89;102320.13;7391765;19;19922;-68
2023/10/17 01:31:25;;;;;;;3.70;2.10;;;;;;;7.46;93.99;102324.53;7393352;19;19944;-68
2023/10/17 01:33:55;;;;;;;3.60;1.85;;;;;;;7.48;94.17;102314.53;7395145;19;19918;-68
2023/10/17 01:36:24;;;;;;;6.38;1.92;;;;;;;7.50;94.34;102313.44;7391692;19;19982;-68
2023/10/17 01:38:54;;;;;;;6.03;2.10;;;;;;;7.54;94.55;102317.59;7392700;19;19922;-68
2023/10/17 01:41:25;;;;;;;3.88;2.17;;;;;;;7.57;94.60;102311.09;7392867;19;19937;-68
2023/10/17 01:43:54;;;;;;;5.20;2.28;;;;;;;7.60;94.63;102303.66;7394514;19;19934;-68
2023/10/17 01:46:21;;;;;;;2.63;1.85;;;;;;;7.62;94.61;102307.09;7392961;19;19948;-68
2023/10/17 01:48:53;;;;;;;2.75;1.92;;;;;;;7.67;94.54;102309.41;7396579;19;20574;-68
2023/10/17 01:51:23;;;;;;;3.85;1.90;;;;;;;7.69;94.39;102307.44;7393584;19;19922;-69
2023/10/17 01:53:51;;;;;;;2.20;1.75;;;;;;;7.70;94.58;102303.78;7393463;19;19939;-68
2023/10/17 01:56:24;;;;;;;6.60;2.30;;;;;;;7.70;94.73;102304.66;7395097;19;19918;-68
2023/10/17 01:58:59;;;;;;;5.57;2.03;;;;;;;7.72;94.67;102299.16;7392424;19;19926;-68
2023/10/17 02:01:29;;;;;;;3.90;2.63;;;;;;;7.73;94.94;102299.03;7392448;19;19956;-68
2023/10/17 02:04:02;;;;;;;3.15;2.10;;;;;;;7.74;95.04;102297.19;7393859;19;19925;-68
2023/10/17 02:06:32;;;;;;;4.43;1.88;;;;;;;7.75;95.07;102290.88;7394704;19;19974;-68
2023/10/17 02:09:17;;;;;;;4.28;2.03;;;;;;;7.76;95.25;102287.22;7395535;19;19960;-68
2023/10/17 02:11:50;;;;;;;2.85;2.13;;;;;;;7.76;95.34;102289.91;7393479;19;19978;-68
2023/10/17 02:14:21;;;;;;;4.97;2.15;;;;;;;7.78;95.27;102289.75;7390301;19;19922;-68
2023/10/17 02:16:51;;;;;;;6.60;2.67;;;;;;;7.77;95.29;102294.25;7391645;19;19934;-68
2023/10/17 02:19:20;;;;;;;4.05;2.00;;;;;;;7.78;95.50;102290.59;7396545;19;19985;-67
2023/10/17 02:21:49;;;;;;;3.22;1.83;;;;;;;7.80;95.52;102288.66;7395785;19;19937;-68
2023/10/17 02:24:21;;;;;;;2.58;2.17;;;;;;;7.83;95.73;102291.09;7391612;19;19927;-68
2023/10/17 02:27:00;;;;;;;4.10;2.17;;;;;;;7.84;95.62;102278.53;7392800;19;19926;-68
2023/10/17 02:29:38;;;;;;;3.13;2.00;;;;;;;7.85;95.76;102277.56;7393873;19;19974;-68
2023/10/17 02:32:11;;;;;;;;;;;;;;;7.70;96.85;102277.81;7392796;19;19914;-68
2023/10/17 02:34:40;;;;;;;4.47;1.98;;;;;;;7.78;95.96;102279.03;7393320;19;19922;-67
2023/10/17 02:37:11;;;;;;;3.30;1.85;;;;;;;7.77;95.83;102275.47;7393970;19;20712;-68
2023/10/17 02:39:40;;;;;;;4.10;2.28;;;;;;;7.77;95.99;102278.16;7394383;19;19941;-68
2023/10/17 02:42:09;;;;;;;3.15;2.00;;;;;;;7.78;96.03;102282.56;7392992;19;19926;-68
2023/10/17 02:44:43;;;;;;;3.45;1.98;;;;;;;7.76;95.68;102281.84;7385243;19;19933;-68
2023/10/17 02:47:15;;;;;;;4.60;2.10;;;;;;;7.74;95.94;102278.41;7391704;19;19958;-68
2023/10/17 02:49:46;;;;;;;3.65;2.05;;;;;;;7.74;95.83;102283.78;7392194;19;19982;-68
2023/10/17 02:52:17;;;;;;;3.25;1.95;;;;;;;7.74;95.99;102289.16;7391846;19;19926;-68
2023/10/17 02:54:55;;;;;;;3.70;2.20;;;;;;;7.73;95.91;102285.63;7391043;19;19938;-68
2023/10/17 02:57:26;;;;;;;3.47;2.33;;;;;;;7.74;95.89;102286.47;7395015;19;19963;-68
2023/10/17 03:00:19;;;;;;;3.40;1.85;;;;;;;7.77;95.83;102293.44;7393353;19;19925;-68
2023/10/17 03:02:48;;;;;;;4.10;2.35;;;;;;;7.78;95.87;102293.28;7392505;19;19976;-68
2023/10/17 03:05:18;;;;;;;3.13;1.67;;;;;;;7.81;95.97;102305.63;7391765;19;19927;-68
2023/10/17 03:07:49;;;;;;;6.05;2.55;;;;;;;7.81;95.86;102298.41;7394885;19;19971;-68
2023/10/17 03:10:36;;;;;;;4.43;2.42;;;;;;;7.82;95.65;102297.44;7389805;19;19929;-68
2023/10/17 03:13:13;;;;;;;2.72;1.77;;;;;;;7.84;95.91;102290.13;7392035;19;19922;-68
2023/10/17 03:15:46;;;;;;;2.95;2.10;;;;;;;7.85;95.96;102286.47;7389201;19;19943;-68
2023/10/17 03:18:15;;;;;;;4.63;2.53;;;;;;;7.87;95.73;102289.88;7391485;19;19923;-68
2023/10/17 03:20:50;;;;;;;6.20;2.85;;;;;;;7.91;95.69;102279.72;7388714;19;20756;-68
2023/10/17 03:23:17;;;;;;;3.03;2.33;;;;;;;7.91;95.76;102280.59;7389270;19;19955;-68
2023/10/17 03:25:46;;;;;;;10.32;3.03;;;;;;;7.92;95.87;102282.28;7389120;19;20318;-68
2023/10/17 03:28:13;;;;;;;4.43;2.50;;;;;;;7.94;96.01;102277.63;7389753;19;19930;-68
2023/10/17 03:30:48;;;;;;;4.13;2.42;;;;;;;7.93;95.91;102281.31;7388897;19;19918;-68
2023/10/17 03:33:26;;;;;;;2.45;2.25;;;;;;;7.93;96.13;102273.28;7391015;19;19922;-68
2023/10/17 03:36:04;;;;;;;5.28;2.55;;;;;;;7.94;96.41;102283.00;7390306;19;19926;-68
2023/10/17 03:38:36;;;;;;;5.22;2.60;;;;;;;7.96;96.23;102285.56;7390090;19;19933;-68
2023/10/17 03:41:06;;;;;;;5.40;2.40;;;;;;;7.97;96.39;102290.81;7389094;19;19944;-68
2023/10/17 03:43:45;;;;;;;4.50;2.83;;;;;;;8.00;95.99;102290.56;7390199;19;19929;-68
2023/10/17 03:46:18;;;;;;;3.70;2.53;;;;;;;8.02;96.10;102283.25;7389240;19;19918;-68
2023/10/17 03:48:57;;;;;;;7.65;2.10;;;;;;;8.04;96.09;102292.03;7392785;19;19926;-68
2023/10/17 03:51:26;;;;;;;3.50;2.38;;;;;;;8.06;96.25;102297.28;7389049;19;19926;-68
2023/10/17 03:54:06;;;;;;;4.55;2.72;;;;;;;8.06;96.34;102298.13;7385605;19;20382;-68
2023/10/17 03:56:45;;;;;;;2.60;2.30;;;;;;;8.06;96.41;102300.81;7388753;19;19926;-68
2023/10/17 03:59:27;;;;;;;3.53;2.47;;;;;;;8.05;96.40;102308.97;7389279;19;19930;-68
2023/10/17 04:02:02;;;;;;;4.50;2.40;;;;;;;8.05;96.50;102299.09;7382892;19;19935;-68
2023/10/17 04:04:35;;;;;;;4.40;2.40;;;;;;;8.06;96.57;102292.75;7391280;19;19918;-68
2023/10/17 04:07:06;;;;;;;2.70;2.10;;;;;;;8.08;96.69;102289.94;7395359;19;19947;-67
2023/10/17 04:09:46;;;;;;;4.53;2.38;;;;;;;8.11;96.66;102297.75;7392565;19;19919;-68
2023/10/17 04:12:20;;;;;;;3.13;2.30;;;;;;;8.11;96.84;102292.38;7392862;19;19925;-68
2023/10/17 04:14:58;;;;;;;4.53;2.53;;;;;;;8.12;97.08;102294.91;7390524;19;19919;-67
2023/10/17 04:17:31;;;;;;;3.58;2.47;;;;;;;8.12;96.84;102294.91;7396194;19;19919;-68
2023/10/17 04:20:11;;;;;;;6.63;2.95;;;;;;;8.10;97.21;102304.09;7394472;19;20034;-68
2023/10/17 04:22:39;;;;;;;5.85;2.40;;;;;;;8.13;97.25;102306.50;7393016;19;20258;-68
2023/10/17 04:25:19;;;;;;;2.97;2.47;;;;;;;8.13;97.42;102304.69;7390343;19;19918;-68
2023/10/17 04:27:51;;;;;;;3.42;2.45;;;;;;;8.14;97.26;102302.84;7390082;19;19937;-68
2023/10/17 04:30:22;;;;;;;3.60;2.10;;;;;;;8.13;96.87;102293.94;7393366;19;19919;-68
2023/10/17 04:33:05;;;;;;;4.97;2.33;;;;;;;8.11;96.99;102301.25;7393901;19;19925;-68
2023/10/17 04:35:33;;;;;;;4.22;2.17;;;;;;;8.11;96.98;102309.31;7392668;19;19919;-68
2023/10/17 04:38:18;;;;;;;4.43;2.30;;;;;;;8.12;96.65;102313.72;7394789;19;19930;-68
2023/10/17 04:40:54;;;;;;;4.43;2.20;;;;;;;8.11;96.73;102300.44;7393920;19;19923;-67
2023/10/17 04:43:44;;;;;;;4.43;2.65;;;;;;;8.11;96.89;102298.56;7396909;19;19953;-67
2023/10/17 04:46:13;;;;;;;3.88;2.40;;;;;;;8.10;96.81;102296.03;7391665;19;20002;-67
2023/10/17 04:48:46;;;;;;;3.53;2.00;;;;;;;8.11;96.73;102295.06;7391069;19;20301;-68
2023/10/17 04:51:20;;;;;;;4.72;2.20;;;;;;;8.11;96.93;102293.22;7391849;19;19927;-67
2023/10/17 04:53:50;;;;;;;3.47;2.17;;;;;;;8.13;96.85;102295.78;7391352;19;20262;-68
2023/10/17 04:56:22;;;;;;;3.92;2.33;;;;;;;8.12;96.79;102289.56;7394942;19;19929;-68
2023/10/17 04:58:53;;;;;;;2.83;2.17;;;;;;;8.13;96.64;102290.41;7393091;19;19927;-68
2023/10/17 05:01:46;;;;;;;5.80;2.20;;;;;;;8.15;96.31;102291.97;7394862;19;19922;-68
2023/10/17 05:04:18;;;;;;;4.50;2.20;;;;;;;8.16;96.90;102293.69;7395565;19;19935;-68
2023/10/17 06:16:58;;;;;;;3.38;2.47;;;;;;;8.31;97.15;102331.03;7393720;19;19966;-68
2023/10/17 06:19:27;;;;;;;5.30;2.83;;;;;;;8.30;96.67;102329.31;7394445;19;19922;-67
2023/10/17 06:26:02;;;;;;;4.13;2.47;;;;;;;8.31;96.75;102331.88;7396098;19;19923;-68
2023/10/17 06:30:34;;;;;;;5.20;3.00;;;;;;;8.32;96.70;102322.00;7393821;19;19931;-68
2023/10/17 06:33:05;;;;;;;4.28;2.85;;;;;;;8.34;96.65;102323.56;7395942;19;19929;-68
2023/10/17 06:35:38;;;;;;;4.97;3.20;;;;;;;8.37;96.44;102327.84;7394921;19;19923;-70
2023/10/17 06:38:07;;;;;;;3.60;2.75;;;;;;;8.40;96.57;102335.63;7394214;19;20287;-68
2023/10/17 06:40:44;;;;;;;4.15;3.25;;;;;;;8.42;96.70;102341.72;7393820;19;19915;-68
2023/10/17 06:43:27;;;;;;;5.72;3.17;;;;;;;8.43;96.97;102346.13;7395639;19;19922;-68
2023/10/17 06:45:54;;;;;;;4.93;2.75;;;;;;;8.43;97.33;102332.69;7393574;19;19929;-68
2023/10/17 06:48:31;;;;;;;6.90;3.22;;;;;;;8.43;96.74;102330.84;7393135;19;19930;-68
2023/10/17 06:53:52;;;;;;;6.32;3.30;;;;;;;8.48;97.04;102343.91;7393101;19;20527;-68
2023/10/17 06:56:25;;;;;;;6.60;3.45;;;;;;;8.49;96.33;102341.09;7395569;19;19974;-68
2023/10/17 06:59:04;;;;;;;5.32;2.95;;;;;;;8.53;96.46;102345.25;7393543;19;19926;-68
2023/10/17 07:01:34;;;;;;;7.28;3.65;;;;;;;8.60;96.91;102353.63;7390264;19;19926;-70
2023/10/17 07:04:11;;;;;;;5.40;3.20;;;;;;;8.63;96.55;102337.25;7386582;19;19925;-68
2023/10/17 07:06:41;;;;;;;5.80;3.80;;;;;;;8.67;96.44;102340.56;7387467;19;19926;-68
2023/10/17 07:09:17;;;;;;;7.72;3.20;;;;;;;8.69;96.47;102347.50;7392489;19;19992;-68
2023/10/17 07:11:52;;;;;;;5.43;3.80;;;;;;;8.77;96.09;102352.22;7387009;19;19927;-69
2023/10/17 07:14:27;;;;;;;5.90;3.90;;;;;;;8.84;96.37;102343.53;7388517;19;19978;-69
2023/10/17 07:17:17;;;;;;;4.68;3.58;;;;;;;8.87;95.31;102343.25;7385577;19;19926;-69
2023/10/17 07:19:47;;;;;;;5.55;4.13;;;;;;;8.89;95.48;102338.59;7387491;19;20006;-69
2023/10/17 07:22:17;;;;;;;8.95;4.03;;;;;;;8.91;95.60;102347.38;7392964;19;19936;-67
2023/10/17 07:24:43;;;;;;;5.70;3.50;;;;;;;8.93;95.22;102345.41;7385576;19;20392;-68
2023/10/17 07:27:18;;;;;;;;;;;;;;;8.86;96.46;102344.22;7393831;19;19922;-67
2023/10/17 07:30:02;;;;;;;5.13;3.70;;;;;;;8.97;95.99;102338.78;7391360;19;20280;-67
2023/10/17 07:32:45;;;;;;;6.32;3.50;;;;;;;9.04;95.49;102348.03;7392186;19;19932;-68
2023/10/17 07:35:16;;;;;;;13.40;3.95;;;;;;;9.09;95.28;102348.50;7391731;19;20416;-69
2023/10/17 07:37:56;;;;;;;5.22;3.63;;;;;;;9.14;95.37;102342.75;7387902;19;20371;-68
2023/10/17 07:40:42;;;;;;;5.93;3.33;;;;;;;9.19;94.93;102351.25;7393886;19;19930;-68
2023/10/17 07:43:14;;;;;;;6.47;3.05;;;;;;;9.24;94.31;102354.38;7395261;19;19926;-68
2023/10/17 07:45:43;;;;;;;6.95;3.28;;;;;;;9.29;94.60;102351.31;7392670;19;19918;-68
2023/10/17 07:48:24;;;;;;;8.25;3.58;;;;;;;9.31;94.03;102342.13;7395276;19;19930;-68
2023/10/17 07:50:53;;;;;;;4.70;3.00;;;;;;;9.34;93.49;102344.56;7392321;19;20452;-68
2023/10/17 07:53:23;;;;;;;6.50;3.75;;;;;;;9.39;93.45;102341.47;7398510;19;19986;-68
2023/10/17 07:55:52;;;;;;;6.03;3.00;;;;;;;9.44;93.04;102344.63;7393621;19;19932;-68
2023/10/17 07:58:39;;;;;;;3.55;2.63;;;;;;;9.50;92.78;102354.81;7394161;19;20503;-67
2023/10/17 08:01:14;;;;;;;6.43;2.90;;;;;;;9.55;93.02;102344.50;7393493;19;19978;-68
2023/10/17 08:03:49;;;;;;;7.18;3.25;;;;;;;9.56;92.42;102352.47;7391679;19;19914;-67
2023/10/17 08:06:22;;;;;;;6.65;2.70;;;;;;;9.62;92.74;102358.28;7398036;19;19926;-67
2023/10/17 08:08:52;;;;;;;4.95;2.60;;;;;;;9.65;91.75;102353.50;7390827;19;19926;-68
2023/10/17 08:11:31;;;;;;;6.22;2.60;;;;;;;9.71;91.57;102352.94;7392866;19;19934;-68
2023/10/17 08:14:09;;;;;;;4.60;2.90;;;;;;;9.79;91.54;102345.06;7393522;19;20457;-68
2023/10/17 08:16:39;;;;;;;4.75;2.30;;;;;;;9.86;91.61;102346.22;7391092;19;20257;-68
2023/10/17 08:19:15;;;;;;;6.97;2.90;;;;;;;9.93;91.53;102338.41;7395347;19;20365;-68
2023/10/17 08:21:49;;;;;;;7.68;2.65;;;;;;;9.98;90.79;102334.34;7396709;19;19979;-68
2023/10/17 08:24:26;;;;;;;5.85;2.25;;;;;;;10.05;90.36;102339.19;7394591;19;19919;-68
2023/10/17 08:27:12;;;;;;;4.63;2.38;;;;;;;10.09;89.83;102340.63;7391874;19;20349;-69
2023/10/17 08:29:48;;;;;;;5.65;2.38;;;;;;;10.13;89.49;102339.34;7394195;19;19930;-67
2023/10/17 08:32:38;;;;;;;7.57;2.50;;;;;;;10.18;89.47;102335.25;7395606;19;19926;-67
2023/10/17 08:35:10;;;;;;;3.50;1.80;;;;;;;10.21;88.71;102336.84;7388181;19;19918;-67
2023/10/17 08:37:43;;;;;;;5.32;2.30;;;;;;;10.23;88.16;102326.75;7395587;19;19931;-67
2023/10/17 08:42:56;;;;;;;4.85;1.73;;;;;;;10.36;88.07;102338.97;7390913;19;20273;-67
2023/10/17 08:45:29;;;;;;;6.55;2.10;;;;;;;10.43;87.89;102336.59;7391267;19;19923;-67
2023/10/17 08:48:00;;;;;;;4.63;2.20;;;;;;;10.53;87.61;102340.13;7391710;19;19952;-68
2023/10/17 08:50:29;;;;;;;4.15;1.98;;;;;;;10.60;87.79;102341.28;7390138;19;20276;-68
2023/10/17 08:52:59;;;;;;;5.90;2.33;;;;;;;10.68;86.98;102335.19;7397269;19;20001;-68
2023/10/17 08:55:28;;;;;;;5.38;2.60;;;;;;;10.65;86.51;102335.47;7391579;19;19926;-68
2023/10/17 08:57:59;;;;;;;2.50;1.77;;;;;;;10.66;85.76;102339.84;7389047;19;19978;-67
2023/10/17 09:03:12;;;;;;;4.20;1.35;;;;;;;10.69;85.15;102334.19;7388785;19;20270;-68
2023/10/17 09:05:58;;;;;;;5.93;2.00;;;;;;;10.70;83.18;102339.41;7387692;19;19978;-68
2023/10/17 09:08:41;;;;;;;4.00;1.70;;;;;;;10.75;81.99;102334.47;7394726;19;19926;-68
2023/10/17 09:11:14;;;;;;;3.83;1.77;;;;;;;10.76;81.25;102336.19;7395300;19;19957;-68
2023/10/17 09:13:52;;;;;;;2.65;1.95;;;;;;;10.81;81.99;102328.50;7390842;19;19923;-68
2023/10/17 09:16:23;;;;;;;2.97;2.03;;;;;;;10.88;81.13;102332.31;7383688;19;19925;-69
2023/10/17 09:18:54;;;;;;;3.53;1.98;;;;;;;10.93;81.36;102331.91;7389393;19;19926;-69
2023/10/17 09:21:23;;;;;;;4.30;1.80;;;;;;;10.93;79.45;102324.66;7392045;19;19927;-68
2023/10/17 09:23:51;;;;;;;4.53;1.95;;;;;;;10.98;80.17;102326.06;7391316;19;19947;-68
2023/10/17 09:26:21;;;;;;;3.50;1.92;;;;;;;11.03;80.26;102321.09;7390254;19;20287;-68
2023/10/17 09:28:50;;;;;;;5.85;1.70;;;;;;;11.09;79.53;102325.94;7394635;19;20269;-68
2023/10/17 09:31:20;;;;;;;3.33;1.58;;;;;;;11.13;78.51;102316.56;7392846;19;19986;-69
2023/10/17 09:33:53;;;;;;;2.00;1.17;;;;;;;11.14;76.27;102319.09;7386941;19;19994;-68
2023/10/17 09:36:22;;;;;;;4.68;1.40;;;;;;;11.21;77.56;102332.84;7396028;19;19922;-69
2023/10/17 09:38:51;;;;;;;1.98;1.40;;;;;;;11.23;75.79;102328.16;7391403;19;20289;-68
2023/10/17 09:41:21;;;;;;;2.08;1.55;;;;;;;11.28;75.29;102323.19;7392972;19;20340;-68
2023/10/17 09:43:51;;;;;;;4.20;1.15;;;;;;;11.31;75.25;102326.44;7393782;19;19940;-68
2023/10/17 09:46:23;;;;;;;1.45;1.00;;;;;;;11.33;74.94;102329.00;7394094;19;19951;-68
2023/10/17 09:48:55;;;;;;;2.42;1.15;;;;;;;11.34;73.18;102336.94;7393828;19;19958;-69
2023/10/17 09:51:26;;;;;;;5.75;1.77;;;;;;;11.39;75.22;102326.53;7393554;19;19927;-69
2023/10/17 09:53:58;;;;;;;4.07;1.33;;;;;;;11.44;74.56;102331.50;7390228;19;20357;-68
2023/10/17 09:56:31;;;;;;;3.22;1.50;;;;;;;11.49;73.58;102328.34;7395128;19;19999;-69
2023/10/17 09:59:06;;;;;;;1.75;1.00;;;;;;;11.55;74.06;102338.56;7394132;19;19915;-68
2023/10/17 10:01:36;;;;;;;1.60;1.00;;;;;;;11.61;74.78;102328.03;7387174;19;19953;-68
2023/10/17 10:04:09;;;;;;;2.50;0.88;;;;;;;11.62;72.30;102329.72;7391139;19;19923;-68
2023/10/17 10:06:39;;;;;;;4.63;1.30;;;;;;;11.65;72.81;102329.44;7395618;19;20469;-68
2023/10/17 10:09:26;;;;;;;2.28;0.90;;;;;;;11.62;67.24;102343.22;7395259;19;20277;-68
2023/10/17 10:12:01;;;;;;;4.25;0.85;;;;;;;11.70;69.75;102343.34;7390259;19;19927;-69
2023/10/17 10:14:43;;;;;;;3.22;0.70;;;;;;;11.78;70.45;102343.47;7386871;19;20393;-69
2023/10/17 10:17:14;;;;;;;3.28;0.88;;;;;;;11.90;71.30;102332.50;7389972;19;19914;-68
2023/10/17 10:20:08;;;;;;;1.75;0.88;;;;;;;11.96;68.40;102331.88;7388739;19;19936;-68
2023/10/17 10:22:56;;;;;;;4.75;1.40;;;;;;;12.02;68.16;102325.88;7392835;19;19978;-69
2023/10/17 10:25:26;;;;;;;4.18;1.10;;;;;;;12.14;70.19;102325.53;7385968;19;20010;-68
2023/10/17 10:28:24;;;;;;;2.83;0.75;;;;;;;12.17;65.77;102327.06;7390296;19;19922;-68
2023/10/17 10:30:53;;;;;;;1.95;1.00;;;;;;;12.26;69.06;102326.16;7385626;19;19919;-68
2023/10/17 10:33:22;;;;;;;1.27;0.77;;;;;;;12.32;67.48;102320.16;7393210;19;19922;-68
2023/10/17 10:35:53;;;;;;;3.25;1.42;;;;;;;12.35;66.81;102324.38;7391897;19;19927;-67
2023/10/17 10:38:27;;;;;;;1.52;0.73;;;;;;;12.42;66.54;102322.78;7390960;19;19915;-68
2023/10/17 10:40:55;;;;;;;2.65;0.93;;;;;;;12.44;66.29;102315.34;7386187;19;19947;-68
2023/10/17 10:43:25;;;;;;;3.00;0.90;;;;;;;12.52;66.83;102312.72;7389073;19;19929;-68
2023/10/17 10:45:55;;;;;;;3.85;0.80;;;;;;;12.66;67.46;102301.38;7392524;19;19934;-68
2023/10/17 10:48:24;;;;;;;2.88;0.75;;;;;;;12.76;65.84;102298.59;7390701;19;19955;-68
2023/10/17 10:50:57;;;;;;;1.13;0.60;;;;;;;12.84;64.57;102293.25;7388974;19;19922;-68
2023/10/17 10:53:28;;;;;;;5.00;1.00;;;;;;;12.87;65.75;102287.50;7388217;19;19960;-69
2023/10/17 10:55:59;;;;;;;1.90;0.70;;;;;;;12.94;65.70;102297.56;7384943;19;19926;-69
2023/10/17 10:58:29;;;;;;;2.03;0.80;;;;;;;13.05;63.85;102299.16;7395662;19;19930;-68
2023/10/17 11:01:02;;;;;;;4.18;0.85;;;;;;;13.13;63.74;102297.38;7385946;19;19922;-72
2023/10/17 11:03:31;;;;;;;1.75;0.75;;;;;;;13.15;63.90;102294.53;7387849;19;19918;-72
2023/10/17 11:06:07;;;;;;;2.30;0.73;;;;;;;13.23;63.31;102296.44;7388337;19;19923;-73
2023/10/17 11:08:38;;;;;;;3.05;0.80;;;;;;;13.32;64.42;102293.63;7387082;19;21854;-74
2023/10/17 11:11:09;;;;;;;3.72;0.90;;;;;;;13.35;62.99;102279.75;7386278;19;19935;-72
2023/10/17 11:13:39;;;;;;;2.83;1.10;;;;;;;13.44;63.12;102267.97;7384027;19;19922;-74
2023/10/17 11:16:09;;;;;;;1.63;0.85;;;;;;;13.53;63.44;102267.00;7390866;19;19918;-70
2023/10/17 11:18:38;;;;;;;1.88;0.82;;;;;;;13.66;63.88;102265.69;7391887;19;19949;-71
2023/10/17 11:21:09;;;;;;;1.52;0.80;;;;;;;13.76;61.80;102263.72;7388375;19;19930;-70
2023/10/17 11:23:42;;;;;;;3.83;1.00;;;;;;;13.87;62.51;102272.38;7392137;19;19922;-72
2023/10/17 11:26:12;;;;;;;2.95;1.10;;;;;;;13.95;62.80;102258.00;7385624;19;19922;-71
2023/10/17 11:28:42;;;;;;;1.52;0.73;;;;;;;14.06;62.83;102249.56;7385989;19;19919;-71
2023/10/17 11:31:21;;;;;;;2.05;1.30;;;;;;;14.09;62.20;102247.38;7383194;19;19933;-71
2023/10/17 11:33:55;;;;;;;2.67;1.05;;;;;;;14.15;61.41;102242.31;7387278;19;19918;-71
2023/10/17 11:36:35;;;;;;;3.65;0.98;;;;;;;14.26;61.75;102245.53;7391425;19;19924;-70
2023/10/17 11:39:05;;;;;;;2.78;0.90;;;;;;;14.34;62.04;102240.13;7388371;19;20214;-70
2023/10/17 11:41:39;;;;;;;1.10;1.00;;;;;;;14.40;61.38;102235.94;7390305;19;19943;-70
2023/10/17 11:44:09;;;;;;;3.80;1.30;;;;;;;14.40;59.61;102238.63;7392204;19;19925;-68
2023/10/17 11:46:38;;;;;;;2.15;1.48;;;;;;;14.46;60.33;102232.53;7391402;19;19957;-70
2023/10/17 11:49:32;;;;;;;2.13;0.80;;;;;;;14.48;58.57;102231.34;7390461;19;19918;-69
2023/10/17 11:52:05;;;;;;;2.45;1.10;;;;;;;14.53;59.74;102233.56;7390821;19;19925;-68
2023/10/17 11:54:34;;;;;;;2.85;1.20;;;;;;;14.58;59.36;102236.63;7389274;19;19918;-70
2023/10/17 11:57:16;;;;;;;1.58;0.82;;;;;;;14.67;60.36;102241.00;7388864;19;19935;-70
2023/10/17 12:00:06;;;;;;;2.30;0.77;;;;;;;14.79;57.07;102244.22;7390092;19;19923;-70
2023/10/17 12:02:36;;;;;;;1.50;0.70;;;;;;;14.84;58.76;102241.84;7389443;19;20280;-71
2023/10/17 12:05:05;;;;;;;2.30;0.70;;;;;;;14.91;57.64;102237.41;7389405;19;19993;-70
2023/10/17 12:07:42;;;;;;;1.98;1.45;;;;;;;14.95;57.76;102233.34;7386456;19;19922;-70
2023/10/17 12:10:12;;;;;;;1.45;0.70;;;;;;;15.02;58.05;102244.34;7383279;19;19939;-70
2023/10/17 12:12:40;;;;;;;3.03;0.85;;;;;;;14.97;57.02;102236.75;7375892;19;20025;-72
2023/10/17 12:15:13;;;;;;;2.60;0.85;;;;;;;15.04;57.19;102235.03;7382561;19;19925;-71
2023/10/17 12:17:44;;;;;;;2.85;0.80;;;;;;;15.12;57.48;102226.00;7385691;19;19922;-70
2023/10/17 12:20:13;;;;;;;0.95;0.80;;;;;;;15.22;57.97;102221.25;7388129;19;20270;-71
2023/10/17 12:22:45;;;;;;;4.40;0.80;;;;;;;15.32;56.09;102219.16;7388213;19;19943;-71
2023/10/17 12:25:16;;;;;;;1.45;0.70;;;;;;;15.43;56.21;102219.63;7383116;19;19922;-69
2023/10/17 12:27:49;;;;;;;1.90;0.60;;;;;;;15.52;56.41;102220.47;7388302;19;19966;-71
2023/10/17 12:30:22;;;;;;;1.27;0.65;;;;;;;15.50;56.64;102218.91;7388756;19;19934;-70
2023/10/17 12:32:51;;;;;;;2.78;0.63;;;;;;;15.54;55.21;102229.28;7389742;19;19918;-70
2023/10/17 12:35:21;;;;;;;1.75;0.60;;;;;;;15.57;55.63;102222.66;7388500;19;19949;-72
2023/10/17 12:37:57;;;;;;;2.03;0.70;;;;;;;15.65;55.08;102220.75;7392820;19;20356;-72
2023/10/17 12:40:26;;;;;;;2.45;0.50;;;;;;;15.77;55.79;102216.63;7389378;19;19922;-72
2023/10/17 12:42:55;;;;;;;4.40;0.63;;;;;;;15.86;55.29;102214.69;7385446;19;19922;-71
2023/10/17 12:45:24;;;;;;;1.27;0.40;;;;;;;15.94;54.98;102217.34;7396651;19;19918;-71
2023/10/17 12:47:54;;;;;;;2.65;0.50;;;;;;;15.99;53.95;102212.25;7383980;19;19915;-70
2023/10/17 12:50:23;;;;;;;1.45;0.60;;;;;;;16.02;53.60;102211.88;7387069;19;19922;-70
2023/10/17 12:52:55;;;;;;;1.90;0.60;;;;;;;16.08;54.28;102215.75;7389728;19;19927;-70
2023/10/17 12:55:23;;;;;;;0.80;0.40;;;;;;;16.15;54.51;102205.84;7385901;19;19911;-71
2023/10/17 12:57:52;;;;;;;2.35;0.50;;;;;;;16.15;54.14;102201.25;7395041;19;19926;-71
2023/10/17 13:00:25;;;;;;;2.90;0.40;;;;;;;16.16;53.45;102205.66;7396015;19;19986;-71
2023/10/17 13:02:55;;;;;;;0.55;0.40;;;;;;;16.19;53.85;102190.84;7393874;19;20282;-71
2023/10/17 13:05:24;;;;;;;1.00;0.55;;;;;;;16.24;53.37;102194.72;7396078;19;19989;-69
2023/10/17 13:07:56;;;;;;;2.63;0.88;;;;;;;16.33;51.88;102195.50;7390961;19;19926;-71
2023/10/17 13:10:26;;;;;;;1.50;0.43;;;;;;;16.38;52.47;102184.94;7387740;19;19918;-69
2023/10/17 13:12:54;;;;;;;1.67;0.40;;;;;;;16.46;51.73;102173.97;7394541;19;20683;-69
2023/10/17 13:15:23;;;;;;;1.23;0.40;;;;;;;16.59;52.28;102174.22;7383919;19;19931;-69
2023/10/17 13:17:54;;;;;;;1.40;0.40;;;;;;;16.68;52.40;102167.66;7388633;19;19918;-69
2023/10/17 13:20:28;;;;;;;1.02;0.57;;;;;;;16.76;52.58;102169.47;7389944;19;19923;-69
2023/10/17 13:23:03;;;;;;;2.17;1.27;;;;;;;16.74;49.13;102169.63;7391714;19;20404;-69